Time;durP1;ratioP1;P1;durP2;ratioP2;P2;SDS_P1;SDS_P2;PMS_P1;PMS_P2;Temp;Humidity;BMP_temperature;BMP_pressure;BME280_temperature;BME280_humidity;BME280_pressure;Samples;Min_cycle;Max_cycle;Signal;HPM_P1;HPM_P2
2022/12/20 00:00:43;;;;;;;35.40;16.80;;;;;;;0.05;80.08;100843.68;126661;1298;107622;-74
2022/12/20 00:03:56;;;;;;;33.80;16.30;;;;;;;0.05;80.06;100839.79;126712;1298;107486;-73
2022/12/20 00:07:01;;;;;;;30.80;14.80;;;;;;;0.09;80.07;100835.98;126733;1298;107527;-73
2022/12/20 00:10:08;;;;;;;30.90;15.60;;;;;;;0.17;79.92;100831.75;126558;1298;107925;-74
2022/12/20 00:13:14;;;;;;;34.40;16.20;;;;;;;0.26;79.90;100832.17;126572;1296;105628;-73
2022/12/20 00:16:22;;;;;;;31.20;15.70;;;;;;;0.31;79.78;100833.17;126554;1293;107517;-73
2022/12/20 00:19:27;;;;;;;29.30;14.40;;;;;;;0.33;79.69;100830.96;126589;1299;107505;-72
2022/12/20 00:22:32;;;;;;;30.50;15.60;;;;;;;0.36;79.88;100822.42;126648;1291;107428;-72
2022/12/20 00:25:38;;;;;;;31.00;16.20;;;;;;;0.36;79.72;100824.49;126682;1298;107569;-72
2022/12/20 00:28:44;;;;;;;30.10;15.30;;;;;;;0.36;79.95;100821.88;126680;1296;107267;-72
2022/12/20 00:31:49;;;;;;;36.80;16.10;;;;;;;0.36;80.02;100823.11;126711;1296;107517;-73
2022/12/20 00:34:55;;;;;;;33.40;15.60;;;;;;;0.36;80.24;100824.31;126710;1298;107511;-72
2022/12/20 00:38:00;;;;;;;27.90;13.50;;;;;;;0.41;80.34;100820.27;126521;1296;107509;-73
2022/12/20 00:41:08;;;;;;;28.70;13.80;;;;;;;0.50;80.24;100823.51;126512;1289;107457;-72
2022/12/20 00:44:15;;;;;;;29.30;13.60;;;;;;;0.59;80.31;100824.98;126695;1296;107498;-74
2022/12/20 00:47:20;;;;;;;27.80;14.80;;;;;;;0.65;80.27;100825.72;126609;1281;107306;-72
2022/12/20 00:50:25;;;;;;;27.50;14.70;;;;;;;0.70;80.38;100830.27;126629;1288;107484;-72
2022/12/20 00:53:33;;;;;;;27.10;13.90;;;;;;;0.72;80.38;100828.40;126632;1295;107529;-74
2022/12/20 00:56:39;;;;;;;27.70;14.50;;;;;;;0.71;80.57;100827.21;126635;1298;107261;-72
2022/12/20 00:59:44;;;;;;;32.50;15.30;;;;;;;0.69;80.70;100821.34;126490;1298;107526;-73
2022/12/20 01:02:50;;;;;;;31.30;15.50;;;;;;;0.68;80.85;100813.16;126878;1290;107456;-73
2022/12/20 01:05:58;;;;;;;25.40;12.90;;;;;;;0.71;81.00;100808.64;126635;1296;106534;-74
2022/12/20 01:09:04;;;;;;;28.80;14.70;;;;;;;0.76;81.30;100801.72;126646;1296;107241;-73
2022/12/20 01:12:10;;;;;;;29.10;14.60;;;;;;;0.81;81.24;100798.87;126616;1298;107559;-73
2022/12/20 01:15:16;;;;;;;28.90;14.50;;;;;;;0.84;81.37;100796.09;126668;1298;107593;-73
2022/12/20 01:18:21;;;;;;;30.00;15.70;;;;;;;0.86;81.32;100795.80;126666;1297;107485;-73
2022/12/20 01:21:28;;;;;;;27.80;14.70;;;;;;;0.86;81.50;100793.89;126516;1296;107546;-73
2022/12/20 01:24:33;;;;;;;32.60;15.70;;;;;;;0.83;81.76;100781.77;126490;1296;107340;-73
2022/12/20 01:27:38;;;;;;;28.70;14.50;;;;;;;0.82;81.78;100783.23;125533;1291;1360835;-74
2022/12/20 01:30:44;;;;;;;26.20;12.90;;;;;;;0.85;81.82;100778.70;126535;1282;107937;-74
2022/12/20 01:33:50;;;;;;;26.10;14.20;;;;;;;0.91;81.93;100771.59;126520;1298;107485;-74
2022/12/20 01:36:55;;;;;;;29.60;15.60;;;;;;;0.97;81.98;100763.00;126636;1297;107976;-74
2022/12/20 01:40:00;;;;;;;33.00;16.20;;;;;;;1.00;81.96;100753.39;126565;1290;107455;-74
2022/12/20 01:43:06;;;;;;;27.20;14.60;;;;;;;1.01;82.11;100746.90;126768;1298;106556;-74
2022/12/20 01:46:12;;;;;;;29.20;15.70;;;;;;;0.98;82.15;100742.27;126773;1295;107530;-75
2022/12/20 01:49:22;;;;;;;33.30;16.50;;;;;;;0.96;82.43;100738.90;126590;1298;107492;-74
2022/12/20 01:52:33;;;;;;;33.10;15.70;;;;;;;0.94;82.41;100733.92;126589;1291;107169;-73
2022/12/20 01:55:38;;;;;;;31.30;15.30;;;;;;;0.95;82.77;100731.92;126678;1297;108097;-74
2022/12/20 01:58:46;;;;;;;29.60;15.40;;;;;;;0.99;82.57;100734.36;126505;1299;107538;-73
2022/12/20 02:01:51;;;;;;;31.70;15.80;;;;;;;1.04;82.70;100735.52;126614;1289;107361;-74
2022/12/20 02:04:57;;;;;;;30.40;16.10;;;;;;;1.05;82.59;100730.87;126554;1298;108656;-73
2022/12/20 02:08:03;;;;;;;29.70;16.60;;;;;;;1.06;82.55;100732.92;126542;1304;106390;-74
2022/12/20 02:11:23;;;;;;;30.90;16.10;;;;;;;1.05;82.56;100728.43;126535;1296;107490;-71
2022/12/20 02:14:52;;;;;;;36.10;17.80;;;;;;;1.03;82.71;100728.91;126564;1291;107520;-73
2022/12/20 02:18:10;;;;;;;32.10;16.60;;;;;;;1.00;82.86;100729.59;126968;1295;107417;-72
2022/12/20 02:21:23;;;;;;;25.90;13.50;;;;;;;1.02;83.01;100734.03;126579;1298;107531;-72
2022/12/20 02:24:53;;;;;;;31.90;15.70;;;;;;;1.08;82.83;100729.52;126499;1285;107332;-72
2022/12/20 02:28:06;;;;;;;32.10;16.30;;;;;;;1.15;82.91;100719.52;126634;1294;107517;-71
2022/12/20 02:31:16;;;;;;;30.30;15.60;;;;;;;1.17;82.78;100716.92;126580;1295;107544;-72
2022/12/20 02:34:24;;;;;;;32.50;16.50;;;;;;;1.18;83.04;100707.08;126489;1296;107532;-71
2022/12/20 02:37:30;;;;;;;32.70;15.60;;;;;;;1.17;83.06;100691.73;126478;1298;107586;-74
2022/12/20 02:40:40;;;;;;;34.60;16.80;;;;;;;1.11;83.13;100688.35;126456;1298;106581;-71
2022/12/20 02:47:19;;;;;;;27.50;14.50;;;;;;;1.11;83.30;100709.73;126544;1289;107265;-73
2022/12/20 02:50:31;;;;;;;33.00;15.70;;;;;;;1.15;83.13;100704.77;126630;1289;107618;-74
2022/12/20 02:53:38;;;;;;;29.30;15.50;;;;;;;1.20;83.25;100702.09;126584;1294;107465;-72
2022/12/20 02:56:50;;;;;;;29.80;15.40;;;;;;;1.22;83.01;100689.70;126590;1295;107259;-74
2022/12/20 03:00:02;;;;;;;29.70;15.30;;;;;;;1.23;82.97;100687.03;126587;1292;106575;-73
2022/12/20 03:03:22;;;;;;;30.00;15.70;;;;;;;1.22;82.90;100691.80;126641;1295;107540;-72
2022/12/20 03:06:29;;;;;;;32.50;16.50;;;;;;;1.20;82.94;100697.54;126665;1295;107586;-71
2022/12/20 03:09:37;;;;;;;31.80;15.90;;;;;;;1.17;82.99;100693.64;126586;1295;107964;-72
2022/12/20 03:12:43;;;;;;;25.30;13.70;;;;;;;1.20;82.93;100697.52;126604;1296;107554;-70
2022/12/20 03:15:48;;;;;;;28.30;14.80;;;;;;;1.26;83.10;100702.65;126329;1298;107557;-69
2022/12/20 03:18:54;;;;;;;28.30;14.50;;;;;;;1.31;82.99;100706.17;126364;1296;108149;-72
2022/12/20 03:21:59;;;;;;;30.10;15.50;;;;;;;1.36;82.88;100696.66;126864;1296;107868;-72
2022/12/20 03:25:06;;;;;;;28.70;15.80;;;;;;;1.37;83.10;100693.59;126769;1298;107552;-71
2022/12/20 03:28:11;;;;;;;30.20;15.80;;;;;;;1.37;82.90;100690.27;127020;1298;107563;-72
2022/12/20 03:31:17;;;;;;;31.80;16.00;;;;;;;1.37;82.79;100684.86;126811;1299;109228;-72
2022/12/20 03:34:26;;;;;;;31.50;16.40;;;;;;;1.34;83.10;100678.39;126616;1298;107379;-71
2022/12/20 03:37:32;;;;;;;29.90;14.90;;;;;;;1.33;83.01;100678.08;126491;1300;107767;-71
2022/12/20 03:40:39;;;;;;;26.70;13.30;;;;;;;1.37;83.05;100667.89;126641;1290;107524;-72
2022/12/20 03:43:44;;;;;;;26.70;14.80;;;;;;;1.44;83.19;100660.46;126688;1287;107086;-71
2022/12/20 03:46:50;;;;;;;31.10;15.20;;;;;;;1.48;83.08;100659.34;126704;1289;107547;-73
2022/12/20 03:49:57;;;;;;;28.80;15.10;;;;;;;1.52;83.15;100650.70;126604;1295;108170;-70
2022/12/20 03:53:02;;;;;;;29.30;14.60;;;;;;;1.54;83.11;100651.49;126649;1295;108186;-72
2022/12/20 03:56:08;;;;;;;29.70;15.60;;;;;;;1.52;83.09;100645.27;126963;1295;108628;-71
2022/12/20 03:59:14;;;;;;;30.00;16.10;;;;;;;1.48;83.19;100647.08;126917;1295;107498;-73
2022/12/20 04:02:20;;;;;;;32.30;15.30;;;;;;;1.47;83.35;100653.98;126679;1292;107555;-70
2022/12/20 04:05:25;;;;;;;27.40;13.90;;;;;;;1.50;83.38;100660.85;126545;1295;109353;-71
2022/12/20 04:08:31;;;;;;;27.90;14.70;;;;;;;1.53;83.34;100663.82;126635;1288;107463;-73
2022/12/20 04:11:38;;;;;;;27.40;14.60;;;;;;;1.56;83.23;100675.92;127002;1295;107577;-71
2022/12/20 04:14:47;;;;;;;26.60;14.30;;;;;;;1.57;83.30;100676.73;127066;1295;107941;-72
2022/12/20 04:17:52;;;;;;;26.70;14.80;;;;;;;1.56;83.21;100677.52;126903;1296;107460;-73
2022/12/20 04:21:01;;;;;;;27.00;14.60;;;;;;;1.54;83.32;100677.09;126958;1289;107437;-73
2022/12/20 04:24:09;;;;;;;28.40;15.20;;;;;;;1.51;83.35;100676.72;126756;1292;107480;-72
2022/12/20 04:27:30;;;;;;;30.70;15.50;;;;;;;1.46;83.35;100672.60;126902;1287;107483;-72
2022/12/20 04:30:36;;;;;;;30.40;15.80;;;;;;;1.44;83.42;100679.03;126724;1296;107334;-73
2022/12/20 04:33:42;;;;;;;25.80;13.40;;;;;;;1.46;83.56;100675.08;126567;1295;107493;-71
2022/12/20 04:36:47;;;;;;;26.90;14.20;;;;;;;1.51;83.38;100679.67;126811;1295;107538;-71
2022/12/20 04:39:58;;;;;;;33.10;17.20;;;;;;;1.57;83.63;100679.21;126929;1295;107369;-73
2022/12/20 04:43:13;;;;;;;33.10;17.50;;;;;;;1.62;83.24;100675.81;126770;1292;107590;-72
2022/12/20 04:46:19;;;;;;;50.40;25.20;;;;;;;1.61;83.32;100666.55;126613;1296;107372;-72
2022/12/20 04:49:25;;;;;;;131.90;53.00;;;;;;;1.60;83.47;100665.91;126895;1289;107557;-73
2022/12/20 04:55:56;;;;;;;200.10;65.10;;;;;;;1.55;83.43;100661.75;126444;1303;107399;-72
2022/12/20 04:59:02;;;;;;;70.20;30.30;;;;;;;1.58;83.38;100659.31;126629;1291;107374;-71
2022/12/20 05:02:09;;;;;;;36.30;16.90;;;;;;;1.63;83.50;100654.31;126621;1295;107434;-71
2022/12/20 05:05:24;;;;;;;41.10;20.80;;;;;;;1.67;83.16;100650.40;126633;1296;107497;-73
2022/12/20 05:08:31;;;;;;;36.50;18.00;;;;;;;1.70;83.17;100642.71;126624;1289;107429;-72
2022/12/20 05:11:37;;;;;;;31.80;16.00;;;;;;;1.71;83.17;100646.34;126727;1295;107433;-70
2022/12/20 05:14:44;;;;;;;29.90;15.60;;;;;;;1.69;83.30;100647.52;126702;1288;107480;-71
2022/12/20 05:17:51;;;;;;;29.30;16.30;;;;;;;1.67;83.15;100646.57;126920;1296;107405;-72
2022/12/20 05:28:06;;;;;;;27.40;14.20;;;;;;;1.63;83.07;100660.65;126647;1295;107510;-72
2022/12/20 05:31:14;;;;;;;30.20;15.50;;;;;;;1.66;82.98;100654.85;126714;1289;107566;-72
2022/12/20 05:34:19;;;;;;;39.50;21.70;;;;;;;1.70;82.81;100659.54;126720;1295;107488;-72
2022/12/20 05:37:29;;;;;;;34.70;19.40;;;;;;;1.73;82.83;100658.69;126741;1295;107253;-73
2022/12/20 05:40:39;;;;;;;33.00;17.30;;;;;;;1.74;82.73;100654.95;126632;1289;108554;-73
2022/12/20 05:43:46;;;;;;;28.20;15.40;;;;;;;1.71;82.65;100655.99;126771;1295;108739;-72
2022/12/20 05:46:52;;;;;;;29.80;17.30;;;;;;;1.67;82.65;100645.16;126795;1295;107658;-74
2022/12/20 05:50:00;;;;;;;35.80;18.80;;;;;;;1.62;82.44;100649.14;126713;1281;107450;-75
2022/12/20 05:53:07;;;;;;;35.30;17.90;;;;;;;1.59;82.46;100649.11;126549;1299;107652;-73
2022/12/20 05:56:12;;;;;;;26.10;13.70;;;;;;;1.59;82.38;100643.00;126584;1297;107708;-72
2022/12/20 05:59:17;;;;;;;31.70;15.80;;;;;;;1.60;82.34;100643.65;126559;1295;107539;-72
2022/12/20 06:02:25;;;;;;;62.00;27.80;;;;;;;1.61;82.21;100639.04;126616;1289;107477;-74
2022/12/20 06:05:38;;;;;;;33.00;17.30;;;;;;;1.61;82.30;100640.41;126557;1296;107575;-75
2022/12/20 06:08:45;;;;;;;44.80;22.10;;;;;;;1.61;82.14;100637.10;126833;1295;107495;-75
2022/12/20 06:12:00;;;;;;;31.90;17.60;;;;;;;1.61;82.11;100634.66;126711;1288;107606;-73
2022/12/20 06:15:08;;;;;;;28.50;15.20;;;;;;;1.58;82.02;100623.21;126827;1289;107916;-73
2022/12/20 06:18:14;;;;;;;28.50;15.70;;;;;;;1.55;81.99;100624.75;126858;1288;106468;-73
2022/12/20 06:21:19;;;;;;;33.20;16.40;;;;;;;1.52;82.01;100622.67;126598;1288;107553;-73
2022/12/20 06:24:26;;;;;;;29.00;15.00;;;;;;;1.49;81.90;100616.85;126916;1279;107501;-75
2022/12/20 06:27:32;;;;;;;30.60;14.50;;;;;;;1.51;82.00;100619.89;126665;1295;107454;-75
2022/12/20 06:30:45;;;;;;;28.00;15.10;;;;;;;1.55;81.81;100627.59;126659;1295;107768;-76
2022/12/20 06:34:04;;;;;;;29.40;14.70;;;;;;;1.58;81.91;100636.53;126763;1289;107509;-75
2022/12/20 06:37:13;;;;;;;29.30;14.90;;;;;;;1.60;81.79;100631.89;126666;1287;107516;-76
2022/12/20 06:40:19;;;;;;;28.20;15.30;;;;;;;1.59;81.72;100630.53;126714;1295;107363;-76
2022/12/20 06:43:25;;;;;;;30.10;17.50;;;;;;;1.56;81.49;100632.77;126812;1296;108114;-74
2022/12/20 06:46:31;;;;;;;29.80;17.00;;;;;;;1.52;81.67;100634.23;126799;1295;107450;-73
2022/12/20 06:49:37;;;;;;;62.10;34.00;;;;;;;1.47;81.52;100636.08;126630;1288;107391;-74
2022/12/20 06:52:49;;;;;;;39.80;21.10;;;;;;;1.41;81.45;100640.10;126598;1298;107497;-73
2022/12/20 06:55:55;;;;;;;57.20;26.60;;;;;;;1.38;81.60;100650.23;126767;1295;107447;-73
2022/12/20 06:59:01;;;;;;;31.50;16.00;;;;;;;1.41;81.61;100653.95;126852;1295;107521;-75
2022/12/20 07:02:06;;;;;;;54.60;25.60;;;;;;;1.49;81.64;100657.55;126575;1298;108919;-73
2022/12/20 07:05:12;;;;;;;79.10;36.30;;;;;;;1.59;81.48;100661.05;126746;1297;107451;-75
2022/12/20 07:08:18;;;;;;;89.00;39.90;;;;;;;1.65;81.32;100656.71;126631;1295;107385;-72
2022/12/20 07:11:23;;;;;;;39.80;20.60;;;;;;;1.68;81.26;100653.86;126626;1296;107242;-73
2022/12/20 07:14:29;;;;;;;53.00;25.50;;;;;;;1.72;81.20;100656.64;126604;1299;105710;-74
2022/12/20 07:17:34;;;;;;;55.50;25.90;;;;;;;1.73;81.12;100658.34;126680;1298;107501;-75
2022/12/20 07:20:40;;;;;;;66.00;33.60;;;;;;;1.73;81.13;100654.98;126589;1288;107377;-73
2022/12/20 07:23:45;;;;;;;40.20;20.00;;;;;;;1.73;80.99;100653.58;126659;1293;106560;-75
2022/12/20 07:26:51;;;;;;;38.80;18.60;;;;;;;1.72;80.84;100654.36;126739;1295;107450;-75
2022/12/20 07:29:56;;;;;;;57.70;27.00;;;;;;;1.72;80.90;100656.80;126593;1294;106648;-73
2022/12/20 07:33:02;;;;;;;34.90;17.90;;;;;;;1.77;80.79;100663.86;126627;1295;106625;-72
2022/12/20 07:36:11;;;;;;;34.90;18.20;;;;;;;1.86;80.92;100669.55;126598;1289;107573;-73
2022/12/20 07:39:18;;;;;;;34.80;19.10;;;;;;;1.94;80.75;100670.45;126753;1295;107312;-73
2022/12/20 07:42:23;;;;;;;57.90;26.90;;;;;;;2.00;80.37;100668.74;126596;1296;107244;-72
2022/12/20 07:45:29;;;;;;;76.30;34.80;;;;;;;2.03;80.33;100668.57;126747;1289;107453;-73
2022/12/20 07:48:36;;;;;;;98.80;62.00;;;;;;;2.04;80.16;100662.90;126769;1296;107353;-73
2022/12/20 07:51:48;;;;;;;51.50;27.40;;;;;;;2.04;80.11;100656.23;126972;1289;107522;-74
2022/12/20 07:55:01;;;;;;;36.70;20.00;;;;;;;2.05;80.24;100660.70;126751;1295;107601;-74
2022/12/20 07:58:11;;;;;;;37.60;19.80;;;;;;;2.06;80.04;100667.13;126726;1295;107516;-74
2022/12/20 08:01:16;;;;;;;31.80;17.30;;;;;;;2.05;79.98;100664.23;126662;1295;108643;-73
2022/12/20 08:04:26;;;;;;;30.70;16.70;;;;;;;2.05;79.98;100660.00;126717;1295;107326;-75
2022/12/20 08:07:32;;;;;;;34.60;17.40;;;;;;;2.06;79.98;100653.84;126742;1292;108052;-73
2022/12/20 08:10:39;;;;;;;36.60;18.30;;;;;;;2.07;79.76;100649.02;126623;1295;107384;-72
2022/12/20 08:13:44;;;;;;;31.10;15.60;;;;;;;2.11;80.00;100647.70;126636;1294;107498;-77
2022/12/20 08:16:50;;;;;;;33.20;17.60;;;;;;;2.20;79.52;100643.55;126630;1298;107493;-75
2022/12/20 08:19:56;;;;;;;35.90;18.70;;;;;;;2.28;79.21;100635.34;126618;1281;108076;-76
2022/12/20 08:23:04;;;;;;;34.90;18.80;;;;;;;2.34;79.29;100640.21;126725;1298;106681;-75
2022/12/20 08:26:09;;;;;;;46.10;23.20;;;;;;;2.38;79.36;100641.44;126905;1298;107529;-76
2022/12/20 08:29:15;;;;;;;61.30;27.80;;;;;;;2.43;79.55;100644.29;126856;1297;107550;-75
2022/12/20 08:32:21;;;;;;;37.90;19.90;;;;;;;2.46;79.32;100644.80;126607;1291;109217;-73
2022/12/20 08:35:26;;;;;;;47.30;24.70;;;;;;;2.48;79.31;100641.70;126695;1294;107538;-75
2022/12/20 08:38:32;;;;;;;39.00;20.50;;;;;;;2.50;78.89;100637.73;126656;1294;107518;-75
2022/12/20 08:41:37;;;;;;;49.10;25.20;;;;;;;2.51;78.94;100635.19;126628;1298;107918;-73
2022/12/20 08:44:42;;;;;;;56.10;29.70;;;;;;;2.55;78.94;100641.45;126760;1295;107261;-74
2022/12/20 08:47:48;;;;;;;39.50;21.30;;;;;;;2.61;79.29;100640.05;126693;1298;107621;-76
2022/12/20 08:50:57;;;;;;;55.30;25.50;;;;;;;2.68;79.05;100639.11;126637;1295;107621;-76
2022/12/20 08:54:03;;;;;;;56.10;27.70;;;;;;;2.70;78.99;100635.78;126605;1289;107343;-76
2022/12/20 08:57:09;;;;;;;42.90;21.70;;;;;;;2.74;78.89;100644.19;126612;1296;107534;-76
2022/12/20 09:00:16;;;;;;;32.40;17.50;;;;;;;2.82;78.81;100642.48;126930;1298;107510;-76
2022/12/20 09:03:21;;;;;;;31.40;18.30;;;;;;;2.89;78.58;100642.17;126715;1295;107334;-77
2022/12/20 09:06:27;;;;;;;33.20;18.10;;;;;;;2.99;78.78;100634.95;126599;1289;107430;-76
2022/12/20 09:09:32;;;;;;;40.40;23.20;;;;;;;3.11;78.74;100627.16;126523;1296;107682;-77
2022/12/20 09:12:39;;;;;;;34.00;19.50;;;;;;;3.20;78.24;100623.06;126612;1289;108752;-75
2022/12/20 09:15:45;;;;;;;34.70;18.20;;;;;;;3.25;78.11;100620.30;126613;1289;107462;-75
2022/12/20 09:18:51;;;;;;;34.40;18.60;;;;;;;3.34;78.15;100622.89;126630;1293;107500;-75
2022/12/20 09:21:57;;;;;;;34.90;18.70;;;;;;;3.43;77.80;100617.21;126640;1295;107527;-75
2022/12/20 09:25:02;;;;;;;36.80;20.00;;;;;;;3.47;77.41;100616.74;126629;1296;107627;-75
2022/12/20 09:28:08;;;;;;;36.10;19.00;;;;;;;3.53;77.40;100617.80;126604;1295;106564;-74
2022/12/20 09:31:15;;;;;;;38.80;22.20;;;;;;;3.64;76.94;100613.40;126701;1289;107497;-78
2022/12/20 09:34:21;;;;;;;82.50;47.70;;;;;;;3.77;77.15;100621.90;126643;1289;107414;-74
2022/12/20 09:37:29;;;;;;;57.90;34.80;;;;;;;3.88;77.14;100623.27;126545;1288;107519;-76
2022/12/20 09:40:37;;;;;;;81.20;46.20;;;;;;;3.94;77.06;100623.21;126642;1295;107503;-77
2022/12/20 09:43:44;;;;;;;48.40;27.00;;;;;;;3.96;76.60;100631.75;126635;1292;107258;-76
2022/12/20 09:46:55;;;;;;;269.80;146.80;;;;;;;4.01;77.01;100625.42;126694;1289;107372;-77
2022/12/20 09:50:02;;;;;;;108.90;46.30;;;;;;;4.06;76.42;100629.14;126823;1293;107607;-75
2022/12/20 09:53:21;;;;;;;176.80;69.00;;;;;;;4.14;76.47;100630.15;126651;1296;108601;-76
2022/12/20 09:56:30;;;;;;;256.70;91.00;;;;;;;4.21;76.47;100635.70;126950;1297;107431;-77
2022/12/20 09:59:39;;;;;;;158.10;58.60;;;;;;;4.29;76.40;100634.98;126852;1289;106896;-76
2022/12/20 10:02:45;;;;;;;469.50;177.20;;;;;;;4.32;76.19;100636.70;126697;1296;108540;-77
2022/12/20 10:05:54;;;;;;;313.10;115.70;;;;;;;4.28;76.05;100644.02;126637;1288;108840;-76
2022/12/20 10:09:02;;;;;;;141.40;59.20;;;;;;;4.25;76.26;100647.23;126657;1289;108111;-77
2022/12/20 10:12:21;;;;;;;68.90;35.80;;;;;;;4.22;75.99;100650.92;126649;1289;107772;-77
2022/12/20 10:15:33;;;;;;;68.10;41.70;;;;;;;4.19;75.85;100652.42;126667;1295;107350;-76
2022/12/20 10:18:54;;;;;;;38.40;22.30;;;;;;;4.14;75.86;100649.54;126600;1292;107353;-77
2022/12/20 10:22:09;;;;;;;37.80;21.10;;;;;;;4.15;76.00;100654.23;126588;1297;107401;-77
2022/12/20 10:25:19;;;;;;;265.70;117.30;;;;;;;4.16;76.00;100654.15;126649;1292;108471;-77
2022/12/20 10:28:29;;;;;;;155.90;63.50;;;;;;;4.12;75.37;100650.72;126680;1295;107413;-76
2022/12/20 10:31:36;;;;;;;283.80;106.10;;;;;;;4.05;75.72;100650.15;126868;1290;107435;-75
2022/12/20 10:34:43;;;;;;;322.40;111.00;;;;;;;4.01;75.42;100648.85;126841;1287;107534;-77
2022/12/20 10:38:00;;;;;;;340.10;130.30;;;;;;;3.92;75.61;100642.55;126852;1294;107363;-78
2022/12/20 10:41:14;;;;;;;351.40;133.20;;;;;;;3.88;75.57;100633.43;126935;1297;107351;-76
2022/12/20 10:44:24;;;;;;;134.60;75.20;;;;;;;3.86;75.50;100620.06;126937;1296;108612;-76
2022/12/20 10:47:38;;;;;;;49.50;25.70;;;;;;;3.86;75.66;100612.98;127024;1285;107354;-77
2022/12/20 10:50:54;;;;;;;42.00;23.40;;;;;;;3.90;75.86;100598.30;126917;1296;108763;-77
2022/12/20 10:54:02;;;;;;;39.90;22.00;;;;;;;3.88;75.18;100581.71;126672;1295;107445;-77
2022/12/20 10:57:18;;;;;;;38.00;20.70;;;;;;;3.86;75.22;100568.66;126663;1296;107377;-77
2022/12/20 11:00:31;;;;;;;40.90;20.70;;;;;;;3.86;75.27;100567.95;126692;1296;107552;-77
2022/12/20 11:03:51;;;;;;;36.50;19.40;;;;;;;3.85;74.96;100561.50;126618;1301;107488;-77
2022/12/20 11:06:57;;;;;;;34.60;18.20;;;;;;;3.85;75.36;100560.61;126722;1296;107240;-77
2022/12/20 11:10:18;;;;;;;38.90;20.70;;;;;;;3.92;75.38;100561.91;126652;1298;107452;-77
2022/12/20 11:13:28;;;;;;;38.00;20.80;;;;;;;4.01;75.07;100568.73;126809;1296;108659;-76
2022/12/20 11:16:40;;;;;;;39.50;21.40;;;;;;;4.11;75.11;100565.58;126669;1288;108611;-76
2022/12/20 11:20:06;;;;;;;36.90;20.70;;;;;;;4.20;74.98;100559.70;126601;1295;108533;-76
2022/12/20 11:23:25;;;;;;;37.00;21.20;;;;;;;4.26;75.09;100548.19;126596;1299;106279;-77
2022/12/20 11:26:42;;;;;;;38.10;21.40;;;;;;;4.27;74.67;100536.48;126620;1298;108482;-77
2022/12/20 11:30:04;;;;;;;45.40;24.80;;;;;;;4.26;74.74;100529.00;126576;1295;107484;-77
2022/12/20 11:33:25;;;;;;;49.10;25.80;;;;;;;4.21;74.67;100524.78;126624;1299;107515;-77
2022/12/20 11:36:43;;;;;;;80.30;38.80;;;;;;;4.17;74.92;100522.97;126540;1303;107265;-76
2022/12/20 11:40:21;;;;;;;242.70;95.10;;;;;;;4.12;74.71;100521.48;126790;1296;108653;-77
2022/12/20 11:43:47;;;;;;;183.90;69.40;;;;;;;4.07;74.82;100523.62;126394;1282;107487;-77
2022/12/20 11:47:07;;;;;;;115.90;43.40;;;;;;;4.06;75.03;100512.77;126569;1298;107569;-77
2022/12/20 11:50:32;;;;;;;962.50;365.90;;;;;;;4.04;74.84;100512.70;126564;1298;107509;-77
2022/12/20 11:53:42;;;;;;;409.00;123.10;;;;;;;4.08;74.99;100506.64;126696;1288;108641;-75
2022/12/20 11:56:50;;;;;;;457.00;146.90;;;;;;;4.15;74.75;100511.48;126651;1294;108612;-74
2022/12/20 12:00:00;;;;;;;111.30;38.70;;;;;;;4.21;74.66;100520.67;126649;1295;107629;-74
2022/12/20 12:03:16;;;;;;;56.80;26.10;;;;;;;4.30;74.63;100526.60;126706;1302;107888;-74
2022/12/20 12:06:25;;;;;;;48.70;24.20;;;;;;;4.36;74.27;100528.17;126623;1287;107339;-75
2022/12/20 12:09:37;;;;;;;42.80;23.30;;;;;;;4.42;74.52;100531.63;126731;1288;108632;-78
2022/12/20 12:12:45;;;;;;;41.20;22.80;;;;;;;4.43;74.39;100528.55;126579;1288;107472;-76
2022/12/20 12:15:58;;;;;;;40.50;22.20;;;;;;;4.41;74.34;100524.26;126603;1294;107500;-74
2022/12/20 12:19:08;;;;;;;38.70;21.40;;;;;;;4.39;74.33;100517.23;126662;1289;107509;-77
2022/12/20 12:22:20;;;;;;;41.80;22.80;;;;;;;4.34;74.13;100515.78;126736;1295;107484;-75
2022/12/20 12:25:26;;;;;;;43.50;22.90;;;;;;;4.28;74.20;100520.74;126597;1296;107373;-74
2022/12/20 12:28:33;;;;;;;42.40;22.30;;;;;;;4.26;74.22;100526.90;126720;1298;106187;-77
2022/12/20 12:31:43;;;;;;;38.20;22.30;;;;;;;4.22;74.15;100532.94;126853;1296;107491;-77
2022/12/20 12:35:02;;;;;;;40.60;22.60;;;;;;;4.21;74.37;100532.32;126691;1292;107228;-77
2022/12/20 12:38:28;;;;;;;38.40;21.50;;;;;;;4.20;74.32;100531.52;126632;1292;108781;-75
2022/12/20 12:41:56;;;;;;;36.10;21.00;;;;;;;4.15;74.17;100535.39;126601;1296;107488;-75
2022/12/20 12:45:05;;;;;;;38.80;21.20;;;;;;;4.10;74.31;100534.48;126639;1296;106645;-75
2022/12/20 12:48:17;;;;;;;41.00;20.90;;;;;;;4.08;74.26;100534.44;126639;1296;107568;-77
2022/12/20 12:51:29;;;;;;;40.20;21.30;;;;;;;4.08;74.30;100534.26;126647;1294;107462;-75
2022/12/20 12:54:37;;;;;;;;;;;;;;;4.11;74.33;100535.29;126634;1296;108614;-74
2022/12/20 12:57:57;;;;;;;269.80;98.30;;;;;;;4.17;74.39;100532.09;126597;1296;107501;-77
2022/12/20 13:01:06;;;;;;;292.70;99.80;;;;;;;4.21;74.19;100539.16;126668;1294;107628;-77
2022/12/20 13:04:24;;;;;;;745.60;306.20;;;;;;;4.22;74.22;100539.64;126795;1296;107598;-77
2022/12/20 13:07:43;;;;;;;232.00;78.80;;;;;;;4.24;73.96;100538.63;126698;1296;107376;-75
2022/12/20 13:11:01;;;;;;;344.50;122.80;;;;;;;4.21;73.74;100533.06;126687;1296;107365;-76
2022/12/20 13:14:49;;;;;;;190.80;69.20;;;;;;;4.13;73.90;100521.95;126647;1294;106445;-75
2022/12/20 13:17:57;;;;;;;81.30;40.40;;;;;;;4.07;73.90;100512.88;126669;1292;107664;-74
2022/12/20 13:21:39;;;;;;;53.10;27.10;;;;;;;4.03;74.12;100513.89;126601;1295;107272;-75
2022/12/20 13:24:57;;;;;;;49.50;24.40;;;;;;;4.01;74.01;100505.57;126640;1301;106388;-75
2022/12/20 13:28:33;;;;;;;44.30;23.60;;;;;;;4.00;74.07;100498.02;125724;1298;1245589;-76
2022/12/20 13:31:39;;;;;;;44.10;24.50;;;;;;;3.96;73.88;100496.71;126618;1278;107695;-76
2022/12/20 13:34:57;;;;;;;53.90;31.30;;;;;;;3.92;73.83;100499.27;126643;1296;108721;-75
2022/12/20 13:38:04;;;;;;;53.50;27.20;;;;;;;3.91;74.04;100504.78;126711;1292;108572;-79
2022/12/20 13:41:25;;;;;;;48.00;27.60;;;;;;;3.87;73.92;100503.27;126761;1296;107874;-76
2022/12/20 13:44:45;;;;;;;59.30;31.00;;;;;;;3.83;73.91;100502.20;126816;1289;107509;-76
2022/12/20 13:47:53;;;;;;;48.70;24.70;;;;;;;3.78;74.21;100510.96;126893;1278;107552;-76
2022/12/20 13:50:59;;;;;;;44.90;24.90;;;;;;;3.73;74.19;100518.64;126969;1284;107353;-76
2022/12/20 13:54:15;;;;;;;44.30;23.60;;;;;;;3.70;73.93;100519.23;126756;1284;107494;-77
2022/12/20 13:57:27;;;;;;;41.60;22.40;;;;;;;3.66;74.12;100515.99;126731;1293;107372;-76
2022/12/20 14:00:33;;;;;;;42.30;21.60;;;;;;;3.66;74.35;100510.73;126945;1286;106622;-76
2022/12/20 14:03:46;;;;;;;39.60;19.50;;;;;;;3.70;74.24;100510.81;126884;1293;107524;-77
2022/12/20 14:06:58;;;;;;;38.90;21.00;;;;;;;3.75;74.20;100510.80;127003;1297;107330;-77
2022/12/20 14:10:16;;;;;;;38.70;21.10;;;;;;;3.80;74.15;100509.59;126930;1301;107470;-77
2022/12/20 14:13:25;;;;;;;40.40;21.50;;;;;;;3.83;74.04;100509.95;126680;1296;107386;-77
2022/12/20 14:16:32;;;;;;;42.60;22.40;;;;;;;3.83;74.15;100511.15;126705;1296;107409;-80
2022/12/20 14:19:38;;;;;;;46.70;24.00;;;;;;;3.81;74.04;100510.39;126643;1296;107511;-76
2022/12/20 14:22:53;;;;;;;45.70;23.50;;;;;;;3.78;74.13;100508.52;126636;1296;107487;-75